sensor_id;sensor_type;location;lat;lon;timestamp;temperature;humidity
10459;DHT22;5277;48.722;8.736;2024-01-30T00:01:54;1.90;99.90
10459;DHT22;5277;48.722;8.736;2024-01-30T00:04:19;1.90;99.90
10459;DHT22;5277;48.722;8.736;2024-01-30T00:06:45;1.90;99.90
10459;DHT22;5277;48.722;8.736;2024-01-30T00:09:11;1.90;99.90
10459;DHT22;5277;48.722;8.736;2024-01-30T00:11:40;1.90;99.90
10459;DHT22;5277;48.722;8.736;2024-01-30T00:14:05;1.90;99.90
10459;DHT22;5277;48.722;8.736;2024-01-30T00:16:31;1.90;99.90
10459;DHT22;5277;48.722;8.736;2024-01-30T00:18:57;1.70;99.90
10459;DHT22;5277;48.722;8.736;2024-01-30T00:21:23;1.70;99.90
10459;DHT22;5277;48.722;8.736;2024-01-30T00:23:48;1.70;99.90
10459;DHT22;5277;48.722;8.736;2024-01-30T00:26:14;1.70;99.90
10459;DHT22;5277;48.722;8.736;2024-01-30T00:28:43;1.80;99.90
10459;DHT22;5277;48.722;8.736;2024-01-30T00:31:09;1.70;99.90
10459;DHT22;5277;48.722;8.736;2024-01-30T00:33:41;1.70;99.90
10459;DHT22;5277;48.722;8.736;2024-01-30T00:36:08;1.70;99.90
10459;DHT22;5277;48.722;8.736;2024-01-30T00:38:34;1.70;99.90
10459;DHT22;5277;48.722;8.736;2024-01-30T00:40:59;1.70;99.90
10459;DHT22;5277;48.722;8.736;2024-01-30T00:43:25;1.70;99.90
10459;DHT22;5277;48.722;8.736;2024-01-30T00:45:51;1.70;99.90
10459;DHT22;5277;48.722;8.736;2024-01-30T00:48:18;1.80;99.90
10459;DHT22;5277;48.722;8.736;2024-01-30T00:50:44;1.80;99.90
10459;DHT22;5277;48.722;8.736;2024-01-30T00:53:09;1.80;99.90
10459;DHT22;5277;48.722;8.736;2024-01-30T00:55:35;1.80;99.90
10459;DHT22;5277;48.722;8.736;2024-01-30T00:58:01;1.80;99.90
10459;DHT22;5277;48.722;8.736;2024-01-30T01:00:27;1.70;99.90
10459;DHT22;5277;48.722;8.736;2024-01-30T01:02:56;1.70;99.90
10459;DHT22;5277;48.722;8.736;2024-01-30T01:05:22;1.70;99.90
10459;DHT22;5277;48.722;8.736;2024-01-30T01:07:47;1.70;99.90
10459;DHT22;5277;48.722;8.736;2024-01-30T01:10:14;1.70;99.90
10459;DHT22;5277;48.722;8.736;2024-01-30T01:12:40;1.70;99.90
10459;DHT22;5277;48.722;8.736;2024-01-30T01:15:06;1.70;99.90
10459;DHT22;5277;48.722;8.736;2024-01-30T01:17:34;1.70;99.90
10459;DHT22;5277;48.722;8.736;2024-01-30T01:20:00;1.60;99.90
10459;DHT22;5277;48.722;8.736;2024-01-30T01:22:25;1.70;99.90
10459;DHT22;5277;48.722;8.736;2024-01-30T01:24:51;1.70;99.90
10459;DHT22;5277;48.722;8.736;2024-01-30T01:27:16;1.60;99.90
10459;DHT22;5277;48.722;8.736;2024-01-30T01:29:42;1.70;99.90
10459;DHT22;5277;48.722;8.736;2024-01-30T01:32:08;1.70;99.90
10459;DHT22;5277;48.722;8.736;2024-01-30T01:34:34;1.70;99.90
10459;DHT22;5277;48.722;8.736;2024-01-30T01:36:59;1.60;99.90
10459;DHT22;5277;48.722;8.736;2024-01-30T01:39:25;1.60;99.90
10459;DHT22;5277;48.722;8.736;2024-01-30T01:41:51;1.50;99.90
10459;DHT22;5277;48.722;8.736;2024-01-30T01:44:17;1.50;99.90
10459;DHT22;5277;48.722;8.736;2024-01-30T01:46:44;1.50;99.90
10459;DHT22;5277;48.722;8.736;2024-01-30T01:49:09;1.50;99.90
10459;DHT22;5277;48.722;8.736;2024-01-30T01:51:36;1.60;99.90
10459;DHT22;5277;48.722;8.736;2024-01-30T01:54:05;1.60;99.90
10459;DHT22;5277;48.722;8.736;2024-01-30T01:56:31;1.50;99.90
10459;DHT22;5277;48.722;8.736;2024-01-30T01:59:02;1.50;99.90
10459;DHT22;5277;48.722;8.736;2024-01-30T02:01:32;1.50;99.90
10459;DHT22;5277;48.722;8.736;2024-01-30T02:03:58;1.50;99.90
10459;DHT22;5277;48.722;8.736;2024-01-30T02:06:24;1.50;99.90
10459;DHT22;5277;48.722;8.736;2024-01-30T02:08:50;1.50;99.90
10459;DHT22;5277;48.722;8.736;2024-01-30T02:11:15;1.50;99.90
10459;DHT22;5277;48.722;8.736;2024-01-30T02:13:42;1.40;99.90
10459;DHT22;5277;48.722;8.736;2024-01-30T02:16:08;1.40;99.90
10459;DHT22;5277;48.722;8.736;2024-01-30T02:18:33;1.50;99.90
10459;DHT22;5277;48.722;8.736;2024-01-30T02:21:04;1.40;99.90
10459;DHT22;5277;48.722;8.736;2024-01-30T02:23:30;1.40;99.90
10459;DHT22;5277;48.722;8.736;2024-01-30T02:25:57;1.40;99.90
10459;DHT22;5277;48.722;8.736;2024-01-30T02:28:23;1.40;99.90
10459;DHT22;5277;48.722;8.736;2024-01-30T02:30:48;1.40;99.90
10459;DHT22;5277;48.722;8.736;2024-01-30T02:33:14;1.40;99.90
10459;DHT22;5277;48.722;8.736;2024-01-30T02:35:39;1.50;99.90
10459;DHT22;5277;48.722;8.736;2024-01-30T02:38:05;1.50;99.90
10459;DHT22;5277;48.722;8.736;2024-01-30T02:40:31;1.50;99.90
10459;DHT22;5277;48.722;8.736;2024-01-30T02:43:02;1.50;99.90
10459;DHT22;5277;48.722;8.736;2024-01-30T02:45:27;1.40;99.90
10459;DHT22;5277;48.722;8.736;2024-01-30T02:47:53;1.40;99.90
10459;DHT22;5277;48.722;8.736;2024-01-30T02:50:19;1.30;99.90
10459;DHT22;5277;48.722;8.736;2024-01-30T02:52:44;1.30;99.90
10459;DHT22;5277;48.722;8.736;2024-01-30T02:55:10;1.40;99.90
10459;DHT22;5277;48.722;8.736;2024-01-30T02:57:37;1.40;99.90
10459;DHT22;5277;48.722;8.736;2024-01-30T03:00:03;1.40;99.90
10459;DHT22;5277;48.722;8.736;2024-01-30T03:02:31;1.40;99.90
10459;DHT22;5277;48.722;8.736;2024-01-30T03:04:56;1.30;99.90
10459;DHT22;5277;48.722;8.736;2024-01-30T03:07:22;1.30;99.90
10459;DHT22;5277;48.722;8.736;2024-01-30T03:09:47;1.30;99.90
10459;DHT22;5277;48.722;8.736;2024-01-30T03:12:13;1.30;99.90
10459;DHT22;5277;48.722;8.736;2024-01-30T03:14:39;1.30;99.90
10459;DHT22;5277;48.722;8.736;2024-01-30T03:17:04;1.30;99.90
10459;DHT22;5277;48.722;8.736;2024-01-30T03:19:30;1.30;99.90
10459;DHT22;5277;48.722;8.736;2024-01-30T03:21:55;1.30;99.90
10459;DHT22;5277;48.722;8.736;2024-01-30T03:24:21;1.30;99.90
10459;DHT22;5277;48.722;8.736;2024-01-30T03:26:47;1.30;99.90
10459;DHT22;5277;48.722;8.736;2024-01-30T03:29:12;1.30;99.90
10459;DHT22;5277;48.722;8.736;2024-01-30T03:31:39;1.30;99.90
10459;DHT22;5277;48.722;8.736;2024-01-30T03:34:04;1.30;99.90
10459;DHT22;5277;48.722;8.736;2024-01-30T03:36:30;1.30;99.90
10459;DHT22;5277;48.722;8.736;2024-01-30T03:38:58;1.30;99.90
10459;DHT22;5277;48.722;8.736;2024-01-30T03:41:24;1.20;99.90
10459;DHT22;5277;48.722;8.736;2024-01-30T03:43:50;1.20;99.90
10459;DHT22;5277;48.722;8.736;2024-01-30T03:46:16;1.30;99.90
10459;DHT22;5277;48.722;8.736;2024-01-30T03:48:41;1.30;99.90
10459;DHT22;5277;48.722;8.736;2024-01-30T03:51:07;1.30;99.90
10459;DHT22;5277;48.722;8.736;2024-01-30T03:53:33;1.30;99.90
10459;DHT22;5277;48.722;8.736;2024-01-30T03:55:59;1.20;99.90
10459;DHT22;5277;48.722;8.736;2024-01-30T03:58:25;1.20;99.90
10459;DHT22;5277;48.722;8.736;2024-01-30T04:00:50;1.20;99.90
10459;DHT22;5277;48.722;8.736;2024-01-30T04:03:16;1.20;99.90
10459;DHT22;5277;48.722;8.736;2024-01-30T04:05:42;1.30;99.90
10459;DHT22;5277;48.722;8.736;2024-01-30T04:08:07;1.20;99.90
10459;DHT22;5277;48.722;8.736;2024-01-30T04:10:33;1.30;99.90
10459;DHT22;5277;48.722;8.736;2024-01-30T04:12:59;1.30;99.90
10459;DHT22;5277;48.722;8.736;2024-01-30T04:15:25;1.30;99.90
10459;DHT22;5277;48.722;8.736;2024-01-30T04:17:51;1.30;99.90
10459;DHT22;5277;48.722;8.736;2024-01-30T04:20:17;1.20;99.90
10459;DHT22;5277;48.722;8.736;2024-01-30T04:22:46;1.20;99.90
10459;DHT22;5277;48.722;8.736;2024-01-30T04:25:13;1.20;99.90
10459;DHT22;5277;48.722;8.736;2024-01-30T04:27:39;1.20;99.90
10459;DHT22;5277;48.722;8.736;2024-01-30T04:30:05;1.20;99.90
10459;DHT22;5277;48.722;8.736;2024-01-30T04:32:31;1.20;99.90
10459;DHT22;5277;48.722;8.736;2024-01-30T04:34:57;1.20;99.90
10459;DHT22;5277;48.722;8.736;2024-01-30T04:37:23;1.20;99.90
10459;DHT22;5277;48.722;8.736;2024-01-30T04:39:49;1.20;99.90
10459;DHT22;5277;48.722;8.736;2024-01-30T04:42:14;1.20;99.90
10459;DHT22;5277;48.722;8.736;2024-01-30T04:44:40;1.20;99.90
10459;DHT22;5277;48.722;8.736;2024-01-30T04:47:05;1.10;99.90
10459;DHT22;5277;48.722;8.736;2024-01-30T04:49:34;1.10;99.90
10459;DHT22;5277;48.722;8.736;2024-01-30T04:52:00;1.10;99.90
10459;DHT22;5277;48.722;8.736;2024-01-30T04:54:25;1.10;99.90
10459;DHT22;5277;48.722;8.736;2024-01-30T04:56:51;1.20;99.90
10459;DHT22;5277;48.722;8.736;2024-01-30T04:59:16;1.10;99.90
10459;DHT22;5277;48.722;8.736;2024-01-30T05:01:42;1.20;99.90
10459;DHT22;5277;48.722;8.736;2024-01-30T05:04:08;1.20;99.90
10459;DHT22;5277;48.722;8.736;2024-01-30T05:06:34;1.10;99.90
10459;DHT22;5277;48.722;8.736;2024-01-30T05:09:00;1.10;99.90
10459;DHT22;5277;48.722;8.736;2024-01-30T05:11:25;1.10;99.90
10459;DHT22;5277;48.722;8.736;2024-01-30T05:13:51;1.20;99.90
10459;DHT22;5277;48.722;8.736;2024-01-30T05:16:17;1.10;99.90
10459;DHT22;5277;48.722;8.736;2024-01-30T05:18:43;1.10;99.90
10459;DHT22;5277;48.722;8.736;2024-01-30T05:21:08;1.10;99.90
10459;DHT22;5277;48.722;8.736;2024-01-30T05:23:35;1.10;99.90
10459;DHT22;5277;48.722;8.736;2024-01-30T05:26:01;1.10;99.90
10459;DHT22;5277;48.722;8.736;2024-01-30T05:28:29;1.10;99.90
10459;DHT22;5277;48.722;8.736;2024-01-30T05:30:54;1.10;99.90
10459;DHT22;5277;48.722;8.736;2024-01-30T05:33:20;1.10;99.90
10459;DHT22;5277;48.722;8.736;2024-01-30T05:35:46;1.10;99.90
10459;DHT22;5277;48.722;8.736;2024-01-30T05:38:11;1.10;99.90
10459;DHT22;5277;48.722;8.736;2024-01-30T05:40:37;1.10;99.90
10459;DHT22;5277;48.722;8.736;2024-01-30T05:43:03;1.10;99.90
10459;DHT22;5277;48.722;8.736;2024-01-30T05:45:29;1.00;99.90
10459;DHT22;5277;48.722;8.736;2024-01-30T05:47:54;1.00;99.90
10459;DHT22;5277;48.722;8.736;2024-01-30T05:50:20;1.00;99.90
10459;DHT22;5277;48.722;8.736;2024-01-30T05:52:48;1.00;99.90
10459;DHT22;5277;48.722;8.736;2024-01-30T05:55:14;1.00;99.90
10459;DHT22;5277;48.722;8.736;2024-01-30T05:57:39;1.00;99.90
10459;DHT22;5277;48.722;8.736;2024-01-30T06:00:06;0.90;99.90
10459;DHT22;5277;48.722;8.736;2024-01-30T06:02:33;0.90;99.90
10459;DHT22;5277;48.722;8.736;2024-01-30T06:04:58;0.90;99.90
10459;DHT22;5277;48.722;8.736;2024-01-30T06:07:24;0.90;99.90
10459;DHT22;5277;48.722;8.736;2024-01-30T06:09:49;0.90;99.90
10459;DHT22;5277;48.722;8.736;2024-01-30T06:12:15;0.90;99.90
10459;DHT22;5277;48.722;8.736;2024-01-30T06:14:41;0.90;99.90
10459;DHT22;5277;48.722;8.736;2024-01-30T06:17:08;0.80;99.90
10459;DHT22;5277;48.722;8.736;2024-01-30T06:19:34;0.90;99.90
10459;DHT22;5277;48.722;8.736;2024-01-30T06:21:59;0.90;99.90
10459;DHT22;5277;48.722;8.736;2024-01-30T06:24:25;0.90;99.90
10459;DHT22;5277;48.722;8.736;2024-01-30T06:26:50;0.90;99.90
10459;DHT22;5277;48.722;8.736;2024-01-30T06:29:16;1.00;99.90
10459;DHT22;5277;48.722;8.736;2024-01-30T06:31:42;1.00;99.90
10459;DHT22;5277;48.722;8.736;2024-01-30T06:34:08;1.00;99.90
10459;DHT22;5277;48.722;8.736;2024-01-30T06:36:34;1.00;99.90
10459;DHT22;5277;48.722;8.736;2024-01-30T06:39:00;1.00;99.90
10459;DHT22;5277;48.722;8.736;2024-01-30T06:41:25;1.00;99.90
10459;DHT22;5277;48.722;8.736;2024-01-30T06:43:51;1.10;99.90
10459;DHT22;5277;48.722;8.736;2024-01-30T06:46:17;1.00;99.90
10459;DHT22;5277;48.722;8.736;2024-01-30T06:48:42;1.10;99.90
10459;DHT22;5277;48.722;8.736;2024-01-30T06:51:10;1.00;99.90
10459;DHT22;5277;48.722;8.736;2024-01-30T06:53:36;1.00;99.90
10459;DHT22;5277;48.722;8.736;2024-01-30T06:56:02;1.00;99.90
10459;DHT22;5277;48.722;8.736;2024-01-30T06:58:27;1.00;99.90
10459;DHT22;5277;48.722;8.736;2024-01-30T07:00:53;1.00;99.90
10459;DHT22;5277;48.722;8.736;2024-01-30T07:03:19;0.90;99.90
10459;DHT22;5277;48.722;8.736;2024-01-30T07:05:45;1.00;99.90
10459;DHT22;5277;48.722;8.736;2024-01-30T07:08:10;1.10;99.90
10459;DHT22;5277;48.722;8.736;2024-01-30T07:10:36;1.10;99.90
10459;DHT22;5277;48.722;8.736;2024-01-30T07:13:02;1.10;99.90
10459;DHT22;5277;48.722;8.736;2024-01-30T07:15:27;1.10;99.90
10459;DHT22;5277;48.722;8.736;2024-01-30T07:17:53;1.10;99.90
10459;DHT22;5277;48.722;8.736;2024-01-30T07:20:18;1.10;99.90
10459;DHT22;5277;48.722;8.736;2024-01-30T07:22:45;1.10;99.90
10459;DHT22;5277;48.722;8.736;2024-01-30T07:25:11;1.00;99.90
10459;DHT22;5277;48.722;8.736;2024-01-30T07:27:37;1.00;99.90
10459;DHT22;5277;48.722;8.736;2024-01-30T07:30:02;1.00;99.90
10459;DHT22;5277;48.722;8.736;2024-01-30T07:32:28;1.10;99.90
10459;DHT22;5277;48.722;8.736;2024-01-30T07:34:53;1.10;99.90
10459;DHT22;5277;48.722;8.736;2024-01-30T07:37:19;1.10;99.90
10459;DHT22;5277;48.722;8.736;2024-01-30T07:39:45;1.10;99.90
10459;DHT22;5277;48.722;8.736;2024-01-30T07:42:10;1.20;99.90
10459;DHT22;5277;48.722;8.736;2024-01-30T07:44:36;1.20;99.90
10459;DHT22;5277;48.722;8.736;2024-01-30T07:47:01;1.30;99.90
10459;DHT22;5277;48.722;8.736;2024-01-30T07:49:28;1.30;99.90
10459;DHT22;5277;48.722;8.736;2024-01-30T07:51:53;1.30;99.90
10459;DHT22;5277;48.722;8.736;2024-01-30T07:54:19;1.50;99.90
10459;DHT22;5277;48.722;8.736;2024-01-30T07:56:45;1.40;99.90
10459;DHT22;5277;48.722;8.736;2024-01-30T07:59:11;1.50;99.90
10459;DHT22;5277;48.722;8.736;2024-01-30T08:01:37;1.50;99.90
10459;DHT22;5277;48.722;8.736;2024-01-30T08:04:02;1.50;99.90
10459;DHT22;5277;48.722;8.736;2024-01-30T08:06:28;1.60;99.90
10459;DHT22;5277;48.722;8.736;2024-01-30T08:08:53;1.60;99.90
10459;DHT22;5277;48.722;8.736;2024-01-30T08:11:22;1.70;99.90
10459;DHT22;5277;48.722;8.736;2024-01-30T08:13:52;1.70;99.90
10459;DHT22;5277;48.722;8.736;2024-01-30T08:16:18;1.70;99.90
10459;DHT22;5277;48.722;8.736;2024-01-30T08:18:44;1.80;99.90
10459;DHT22;5277;48.722;8.736;2024-01-30T08:21:09;1.80;99.90
10459;DHT22;5277;48.722;8.736;2024-01-30T08:23:35;1.80;99.90
10459;DHT22;5277;48.722;8.736;2024-01-30T08:26:00;1.90;99.90
10459;DHT22;5277;48.722;8.736;2024-01-30T08:28:26;1.90;99.90
10459;DHT22;5277;48.722;8.736;2024-01-30T08:30:52;2.00;99.90
10459;DHT22;5277;48.722;8.736;2024-01-30T08:33:18;2.10;99.90
10459;DHT22;5277;48.722;8.736;2024-01-30T08:35:43;2.20;99.90
10459;DHT22;5277;48.722;8.736;2024-01-30T08:38:09;2.20;99.90
10459;DHT22;5277;48.722;8.736;2024-01-30T08:40:34;2.30;99.90
10459;DHT22;5277;48.722;8.736;2024-01-30T08:43:00;2.30;99.90
10459;DHT22;5277;48.722;8.736;2024-01-30T08:45:26;2.40;99.90
10459;DHT22;5277;48.722;8.736;2024-01-30T08:47:51;2.50;99.90
10459;DHT22;5277;48.722;8.736;2024-01-30T08:50:17;2.60;99.90
10459;DHT22;5277;48.722;8.736;2024-01-30T08:52:43;2.70;99.90
10459;DHT22;5277;48.722;8.736;2024-01-30T08:55:08;2.70;99.90
10459;DHT22;5277;48.722;8.736;2024-01-30T08:57:34;2.80;99.90
10459;DHT22;5277;48.722;8.736;2024-01-30T09:00:00;2.90;99.90
10459;DHT22;5277;48.722;8.736;2024-01-30T09:02:29;3.00;99.90
10459;DHT22;5277;48.722;8.736;2024-01-30T09:04:54;3.10;99.90
10459;DHT22;5277;48.722;8.736;2024-01-30T09:07:20;3.10;99.90
10459;DHT22;5277;48.722;8.736;2024-01-30T09:09:45;3.10;99.90
10459;DHT22;5277;48.722;8.736;2024-01-30T09:12:11;3.10;99.90
10459;DHT22;5277;48.722;8.736;2024-01-30T09:14:37;3.20;99.90
10459;DHT22;5277;48.722;8.736;2024-01-30T09:17:03;3.10;99.90
10459;DHT22;5277;48.722;8.736;2024-01-30T09:19:30;3.10;99.90
10459;DHT22;5277;48.722;8.736;2024-01-30T09:21:55;3.20;99.90
10459;DHT22;5277;48.722;8.736;2024-01-30T09:24:21;3.20;99.90
10459;DHT22;5277;48.722;8.736;2024-01-30T09:26:47;3.20;99.90
10459;DHT22;5277;48.722;8.736;2024-01-30T09:29:12;3.30;99.90
10459;DHT22;5277;48.722;8.736;2024-01-30T09:31:38;3.40;99.90
10459;DHT22;5277;48.722;8.736;2024-01-30T09:34:03;3.50;99.90
10459;DHT22;5277;48.722;8.736;2024-01-30T09:36:29;3.50;99.90
10459;DHT22;5277;48.722;8.736;2024-01-30T09:38:54;3.60;99.90
10459;DHT22;5277;48.722;8.736;2024-01-30T09:41:23;3.60;99.90
10459;DHT22;5277;48.722;8.736;2024-01-30T09:43:50;3.70;99.90
10459;DHT22;5277;48.722;8.736;2024-01-30T09:46:17;3.80;99.90
10459;DHT22;5277;48.722;8.736;2024-01-30T09:48:48;3.90;99.90
10459;DHT22;5277;48.722;8.736;2024-01-30T09:51:15;3.90;99.90
10459;DHT22;5277;48.722;8.736;2024-01-30T09:53:42;3.90;99.90
10459;DHT22;5277;48.722;8.736;2024-01-30T09:56:09;3.90;99.90
10459;DHT22;5277;48.722;8.736;2024-01-30T09:58:34;4.00;99.90
10459;DHT22;5277;48.722;8.736;2024-01-30T10:01:00;4.10;99.90
10459;DHT22;5277;48.722;8.736;2024-01-30T10:03:25;4.20;99.90
10459;DHT22;5277;48.722;8.736;2024-01-30T10:05:52;4.20;99.90
10459;DHT22;5277;48.722;8.736;2024-01-30T10:08:18;4.30;99.90
10459;DHT22;5277;48.722;8.736;2024-01-30T10:10:47;4.40;99.90
10459;DHT22;5277;48.722;8.736;2024-01-30T10:13:13;4.50;99.90
10459;DHT22;5277;48.722;8.736;2024-01-30T10:15:38;4.60;99.90
10459;DHT22;5277;48.722;8.736;2024-01-30T10:18:05;4.60;99.90
10459;DHT22;5277;48.722;8.736;2024-01-30T10:20:32;4.70;99.90
10459;DHT22;5277;48.722;8.736;2024-01-30T10:22:58;4.80;99.90
10459;DHT22;5277;48.722;8.736;2024-01-30T10:25:25;4.90;99.90
10459;DHT22;5277;48.722;8.736;2024-01-30T10:27:55;5.00;99.90
10459;DHT22;5277;48.722;8.736;2024-01-30T10:30:21;5.10;99.90
10459;DHT22;5277;48.722;8.736;2024-01-30T10:32:47;5.20;99.90
10459;DHT22;5277;48.722;8.736;2024-01-30T10:35:13;5.30;99.90
10459;DHT22;5277;48.722;8.736;2024-01-30T10:37:38;5.40;99.90
10459;DHT22;5277;48.722;8.736;2024-01-30T10:40:04;5.50;99.90
10459;DHT22;5277;48.722;8.736;2024-01-30T10:42:32;5.60;99.90
10459;DHT22;5277;48.722;8.736;2024-01-30T10:45:12;5.60;99.90
10459;DHT22;5277;48.722;8.736;2024-01-30T10:47:40;5.70;99.90
10459;DHT22;5277;48.722;8.736;2024-01-30T10:50:08;5.70;99.90
10459;DHT22;5277;48.722;8.736;2024-01-30T10:52:34;5.80;99.90
10459;DHT22;5277;48.722;8.736;2024-01-30T10:55:00;5.80;99.90
10459;DHT22;5277;48.722;8.736;2024-01-30T10:57:26;5.80;99.90
10459;DHT22;5277;48.722;8.736;2024-01-30T10:59:57;5.90;99.90
10459;DHT22;5277;48.722;8.736;2024-01-30T11:02:24;6.00;99.90
10459;DHT22;5277;48.722;8.736;2024-01-30T11:04:54;6.10;99.90
10459;DHT22;5277;48.722;8.736;2024-01-30T11:07:25;6.10;99.90
10459;DHT22;5277;48.722;8.736;2024-01-30T11:09:59;6.20;99.90
10459;DHT22;5277;48.722;8.736;2024-01-30T11:12:31;6.20;99.90
10459;DHT22;5277;48.722;8.736;2024-01-30T11:15:15;6.30;99.90
10459;DHT22;5277;48.722;8.736;2024-01-30T11:17:42;6.40;99.90
10459;DHT22;5277;48.722;8.736;2024-01-30T11:22:46;6.50;99.90
10459;DHT22;5277;48.722;8.736;2024-01-30T11:25:16;6.60;99.90
10459;DHT22;5277;48.722;8.736;2024-01-30T11:27:46;6.70;99.90
10459;DHT22;5277;48.722;8.736;2024-01-30T11:30:41;6.70;99.90
10459;DHT22;5277;48.722;8.736;2024-01-30T11:33:11;6.80;99.90
10459;DHT22;5277;48.722;8.736;2024-01-30T11:35:42;6.80;99.90
10459;DHT22;5277;48.722;8.736;2024-01-30T11:38:09;6.90;99.90
10459;DHT22;5277;48.722;8.736;2024-01-30T11:40:37;7.00;99.90
10459;DHT22;5277;48.722;8.736;2024-01-30T11:43:04;7.00;99.90
10459;DHT22;5277;48.722;8.736;2024-01-30T11:45:31;7.10;99.90
10459;DHT22;5277;48.722;8.736;2024-01-30T11:47:57;7.20;99.90
10459;DHT22;5277;48.722;8.736;2024-01-30T11:50:24;7.30;99.90
10459;DHT22;5277;48.722;8.736;2024-01-30T11:52:50;7.40;99.90
10459;DHT22;5277;48.722;8.736;2024-01-30T11:55:16;7.40;99.90
10459;DHT22;5277;48.722;8.736;2024-01-30T11:57:42;7.50;99.90
10459;DHT22;5277;48.722;8.736;2024-01-30T12:00:19;7.60;99.90
10459;DHT22;5277;48.722;8.736;2024-01-30T12:02:52;7.70;99.90
10459;DHT22;5277;48.722;8.736;2024-01-30T12:05:21;7.80;99.90
10459;DHT22;5277;48.722;8.736;2024-01-30T12:07:47;7.90;99.90
10459;DHT22;5277;48.722;8.736;2024-01-30T12:10:13;7.90;99.90
10459;DHT22;5277;48.722;8.736;2024-01-30T12:12:41;7.90;99.90
10459;DHT22;5277;48.722;8.736;2024-01-30T12:15:08;8.00;99.90
10459;DHT22;5277;48.722;8.736;2024-01-30T12:17:34;8.10;99.90
10459;DHT22;5277;48.722;8.736;2024-01-30T12:20:06;8.10;99.90
10459;DHT22;5277;48.722;8.736;2024-01-30T12:22:50;8.20;99.90
10459;DHT22;5277;48.722;8.736;2024-01-30T12:25:19;8.20;99.90
10459;DHT22;5277;48.722;8.736;2024-01-30T12:27:47;8.30;99.90
10459;DHT22;5277;48.722;8.736;2024-01-30T12:30:16;8.30;99.90
10459;DHT22;5277;48.722;8.736;2024-01-30T12:32:45;8.40;99.90
10459;DHT22;5277;48.722;8.736;2024-01-30T12:35:16;8.50;99.90
10459;DHT22;5277;48.722;8.736;2024-01-30T12:37:46;8.60;99.90
10459;DHT22;5277;48.722;8.736;2024-01-30T12:40:13;8.70;99.90
10459;DHT22;5277;48.722;8.736;2024-01-30T12:42:43;8.80;99.90
10459;DHT22;5277;48.722;8.736;2024-01-30T12:45:11;8.80;99.90
10459;DHT22;5277;48.722;8.736;2024-01-30T12:47:37;8.80;99.90
10459;DHT22;5277;48.722;8.736;2024-01-30T12:50:03;8.90;99.90
10459;DHT22;5277;48.722;8.736;2024-01-30T12:52:29;9.00;99.90
10459;DHT22;5277;48.722;8.736;2024-01-30T12:54:54;9.00;99.90
10459;DHT22;5277;48.722;8.736;2024-01-30T12:57:20;9.00;99.90
10459;DHT22;5277;48.722;8.736;2024-01-30T12:59:46;9.00;99.90
10459;DHT22;5277;48.722;8.736;2024-01-30T13:02:13;9.10;99.90
10459;DHT22;5277;48.722;8.736;2024-01-30T13:04:39;9.10;99.90
10459;DHT22;5277;48.722;8.736;2024-01-30T13:07:05;9.00;99.90
10459;DHT22;5277;48.722;8.736;2024-01-30T13:09:30;9.10;99.90
10459;DHT22;5277;48.722;8.736;2024-01-30T13:11:57;9.10;99.90
10459;DHT22;5277;48.722;8.736;2024-01-30T13:14:22;9.10;99.90
10459;DHT22;5277;48.722;8.736;2024-01-30T13:16:48;9.10;99.90
10459;DHT22;5277;48.722;8.736;2024-01-30T13:19:14;9.10;99.90
10459;DHT22;5277;48.722;8.736;2024-01-30T13:21:39;9.10;99.90
10459;DHT22;5277;48.722;8.736;2024-01-30T13:24:05;9.10;99.90
10459;DHT22;5277;48.722;8.736;2024-01-30T13:26:34;9.10;99.90
10459;DHT22;5277;48.722;8.736;2024-01-30T13:28:59;9.10;99.90
10459;DHT22;5277;48.722;8.736;2024-01-30T13:31:25;9.20;99.90
10459;DHT22;5277;48.722;8.736;2024-01-30T13:33:52;9.30;99.90
10459;DHT22;5277;48.722;8.736;2024-01-30T13:36:18;9.40;99.90
10459;DHT22;5277;48.722;8.736;2024-01-30T13:38:44;9.50;99.90
10459;DHT22;5277;48.722;8.736;2024-01-30T13:41:10;9.50;99.90
10459;DHT22;5277;48.722;8.736;2024-01-30T13:43:35;9.60;99.90
10459;DHT22;5277;48.722;8.736;2024-01-30T13:46:01;9.70;99.90
10459;DHT22;5277;48.722;8.736;2024-01-30T13:48:26;9.80;99.90
10459;DHT22;5277;48.722;8.736;2024-01-30T13:50:53;9.80;99.90
10459;DHT22;5277;48.722;8.736;2024-01-30T13:53:18;9.90;99.90
10459;DHT22;5277;48.722;8.736;2024-01-30T13:55:44;9.90;99.90
10459;DHT22;5277;48.722;8.736;2024-01-30T13:58:10;9.90;99.90
10459;DHT22;5277;48.722;8.736;2024-01-30T14:00:36;10.00;99.90
10459;DHT22;5277;48.722;8.736;2024-01-30T14:03:01;10.10;99.90
10459;DHT22;5277;48.722;8.736;2024-01-30T14:05:27;10.10;99.90
10459;DHT22;5277;48.722;8.736;2024-01-30T14:07:53;10.10;99.90
10459;DHT22;5277;48.722;8.736;2024-01-30T14:10:19;10.10;99.90
10459;DHT22;5277;48.722;8.736;2024-01-30T14:12:45;10.10;99.90
10459;DHT22;5277;48.722;8.736;2024-01-30T14:15:13;10.20;99.90
10459;DHT22;5277;48.722;8.736;2024-01-30T14:17:40;10.10;99.90
10459;DHT22;5277;48.722;8.736;2024-01-30T14:20:06;10.10;99.90
10459;DHT22;5277;48.722;8.736;2024-01-30T14:22:33;10.20;99.90
10459;DHT22;5277;48.722;8.736;2024-01-30T14:25:00;10.10;99.90
10459;DHT22;5277;48.722;8.736;2024-01-30T14:27:25;10.20;99.90
10459;DHT22;5277;48.722;8.736;2024-01-30T14:29:51;10.20;99.90
10459;DHT22;5277;48.722;8.736;2024-01-30T14:32:17;10.20;99.90
10459;DHT22;5277;48.722;8.736;2024-01-30T14:34:42;10.20;99.90
10459;DHT22;5277;48.722;8.736;2024-01-30T14:37:08;10.20;99.90
10459;DHT22;5277;48.722;8.736;2024-01-30T14:39:34;10.20;99.90
10459;DHT22;5277;48.722;8.736;2024-01-30T14:42:03;10.20;99.90
10459;DHT22;5277;48.722;8.736;2024-01-30T14:44:29;10.20;99.90
10459;DHT22;5277;48.722;8.736;2024-01-30T14:46:54;10.20;99.90
10459;DHT22;5277;48.722;8.736;2024-01-30T14:49:20;10.20;99.90
10459;DHT22;5277;48.722;8.736;2024-01-30T14:51:46;10.20;99.90
10459;DHT22;5277;48.722;8.736;2024-01-30T14:54:12;10.20;99.90
10459;DHT22;5277;48.722;8.736;2024-01-30T14:56:37;10.10;99.90
10459;DHT22;5277;48.722;8.736;2024-01-30T14:59:03;10.00;99.90
10459;DHT22;5277;48.722;8.736;2024-01-30T15:01:29;10.00;99.90
10459;DHT22;5277;48.722;8.736;2024-01-30T15:03:54;10.00;99.90
10459;DHT22;5277;48.722;8.736;2024-01-30T15:06:21;9.90;99.90
10459;DHT22;5277;48.722;8.736;2024-01-30T15:08:50;9.90;99.90
10459;DHT22;5277;48.722;8.736;2024-01-30T15:11:15;9.90;99.90
10459;DHT22;5277;48.722;8.736;2024-01-30T15:13:41;9.80;99.90
10459;DHT22;5277;48.722;8.736;2024-01-30T15:16:07;9.80;99.90
10459;DHT22;5277;48.722;8.736;2024-01-30T15:18:33;9.80;99.90
10459;DHT22;5277;48.722;8.736;2024-01-30T15:20:58;9.60;99.90
10459;DHT22;5277;48.722;8.736;2024-01-30T15:23:24;9.60;99.90
10459;DHT22;5277;48.722;8.736;2024-01-30T15:25:49;9.50;99.90
10459;DHT22;5277;48.722;8.736;2024-01-30T15:28:15;9.60;99.90
10459;DHT22;5277;48.722;8.736;2024-01-30T15:30:42;9.60;99.90
10459;DHT22;5277;48.722;8.736;2024-01-30T15:33:09;9.40;99.90
10459;DHT22;5277;48.722;8.736;2024-01-30T15:35:35;9.40;99.90
10459;DHT22;5277;48.722;8.736;2024-01-30T15:38:01;9.40;99.90
10459;DHT22;5277;48.722;8.736;2024-01-30T15:42:54;9.40;99.90
10459;DHT22;5277;48.722;8.736;2024-01-30T15:45:20;9.40;99.90
10459;DHT22;5277;48.722;8.736;2024-01-30T15:47:45;9.30;99.90
10459;DHT22;5277;48.722;8.736;2024-01-30T15:50:11;9.20;99.90
10459;DHT22;5277;48.722;8.736;2024-01-30T15:52:37;9.10;99.90
10459;DHT22;5277;48.722;8.736;2024-01-30T15:55:02;9.00;99.90
10459;DHT22;5277;48.722;8.736;2024-01-30T15:57:28;9.00;99.90
10459;DHT22;5277;48.722;8.736;2024-01-30T15:59:54;9.00;99.90